Time;durP1;ratioP1;P1;durP2;ratioP2;P2;SDS_P1;SDS_P2;PMS_P1;PMS_P2;Temp;Humidity;BMP_temperature;BMP_pressure;BME280_temperature;BME280_humidity;BME280_pressure;Samples;Min_cycle;Max_cycle;Signal;HPM_P1;HPM_P2
2021/04/21 00:03:32;;;;;;;14.80;13.23;;;9.00;95.10;;;;;;10424738;28;20665;-79
2021/04/21 00:08:36;;;;;;;13.20;11.90;;;9.00;95.20;;;;;;10424001;28;20286;-79
2021/04/21 00:13:38;;;;;;;14.23;12.80;;;9.00;95.20;;;;;;10423051;28;20740;-79
2021/04/21 00:18:43;;;;;;;14.20;12.80;;;8.90;95.30;;;;;;10421876;28;20209;-78
2021/04/21 00:23:45;;;;;;;14.80;13.40;;;8.80;95.60;;;;;;10423439;28;20194;-80
2021/04/21 00:28:50;;;;;;;14.63;13.30;;;8.80;95.60;;;;;;10422572;28;20218;-79
2021/04/21 00:33:56;;;;;;;15.07;13.67;;;8.80;95.60;;;;;;10422269;28;20209;-80
2021/04/21 00:38:59;;;;;;;16.03;14.43;;;8.80;95.60;;;;;;10422624;28;20210;-79
2021/04/21 00:44:11;;;;;;;16.57;14.87;;;8.80;95.80;;;;;;10425396;28;20229;-80
2021/04/21 00:49:16;;;;;;;15.87;14.27;;;8.70;95.80;;;;;;10421327;28;20224;-79
2021/04/21 00:54:29;;;;;;;16.20;14.60;;;8.60;96.10;;;;;;10420845;28;20186;-80
2021/04/21 00:59:44;;;;;;;17.97;16.17;;;8.60;96.00;;;;;;10417702;28;20221;-79
2021/04/21 01:04:48;;;;;;;16.17;14.57;;;8.60;96.10;;;;;;10445702;28;20287;-81
2021/04/21 01:09:55;;;;;;;15.13;13.70;;;8.50;96.20;;;;;;10428846;28;20227;-80
2021/04/21 01:14:59;;;;;;;17.33;14.60;;;8.50;96.30;;;;;;10444199;28;20210;-80
2021/04/21 01:20:12;;;;;;;17.17;15.47;;;8.40;96.40;;;;;;10445374;28;20221;-80
2021/04/21 01:25:19;;;;;;;18.43;16.47;;;8.40;96.60;;;;;;10458687;28;20200;-80
2021/04/21 01:30:24;;;;;;;20.40;18.20;;;8.40;96.60;;;;;;10460428;28;20279;-80
2021/04/21 01:35:26;;;;;;;16.57;14.93;;;8.30;97.00;;;;;;10456030;28;20213;-80
2021/04/21 01:40:31;;;;;;;16.57;14.70;;;8.30;96.80;;;;;;10402504;28;20719;-80
2021/04/21 01:45:34;;;;;;;18.20;16.40;;;8.30;96.90;;;;;;10420111;28;20222;-79
2021/04/21 01:50:36;;;;;;;20.13;16.97;;;8.20;97.10;;;;;;10421148;28;20222;-80
2021/04/21 01:55:46;;;;;;;18.50;16.50;;;8.30;97.30;;;;;;10437277;28;20217;-77
2021/04/21 02:00:51;;;;;;;18.33;16.43;;;8.30;97.30;;;;;;10426843;28;20204;-80
2021/04/21 02:06:24;;;;;;;18.00;16.30;;;8.30;97.00;;;;;;10416694;28;20314;-79
2021/04/21 02:11:29;;;;;;;20.13;17.90;;;8.30;97.00;;;;;;10449212;28;20224;-78
2021/04/21 02:16:40;;;;;;;19.20;17.23;;;8.20;97.10;;;;;;10422624;28;20232;-80
2021/04/21 02:21:47;;;;;;;20.37;18.20;;;8.20;97.40;;;;;;10444232;28;20208;-78
2021/04/21 02:26:54;;;;;;;19.73;17.73;;;8.10;97.40;;;;;;10427487;28;20707;-79
2021/04/21 02:32:10;;;;;;;19.80;17.70;;;8.10;97.50;;;;;;10418517;28;20221;-79
2021/04/21 02:37:16;;;;;;;19.63;17.63;;;8.10;97.50;;;;;;10451209;28;20307;-79
2021/04/21 02:42:27;;;;;;;21.70;19.50;;;8.10;97.50;;;;;;10460859;28;20289;-80
2021/04/21 02:47:37;;;;;;;20.53;18.10;;;8.00;97.70;;;;;;10462882;28;20594;-78
2021/04/21 02:52:56;;;;;;;22.73;19.30;;;8.00;98.00;;;;;;10411278;28;20218;-79
2021/04/21 02:58:05;;;;;;;21.27;18.70;;;8.00;98.00;;;;;;10425636;28;20693;-79
2021/04/21 03:03:14;;;;;;;20.97;18.77;;;8.00;98.00;;;;;;10427950;28;20697;-78
2021/04/21 03:08:22;;;;;;;22.50;18.67;;;8.00;97.80;;;;;;10426585;28;20226;-78
2021/04/21 03:13:28;;;;;;;22.40;19.47;;;8.00;97.80;;;;;;10426712;28;20202;-77
2021/04/21 03:18:32;;;;;;;22.50;20.10;;;8.00;97.70;;;;;;10424356;28;20224;-79
2021/04/21 03:23:38;;;;;;;21.37;18.70;;;7.90;97.70;;;;;;10423072;28;20265;-80
2021/04/21 03:28:44;;;;;;;21.50;19.33;;;7.90;97.90;;;;;;10488534;22;20715;-81
2021/04/21 03:33:50;;;;;;;21.50;18.97;;;7.80;97.90;;;;;;10501994;28;20196;-81
2021/04/21 03:38:52;;;;;;;23.93;19.63;;;7.80;98.00;;;;;;10497793;28;20220;-79
2021/04/21 03:43:54;;;;;;;20.33;18.33;;;7.70;98.10;;;;;;10501815;28;20195;-79
2021/04/21 03:48:58;;;;;;;24.23;21.63;;;7.70;98.10;;;;;;10483219;28;20609;-79
2021/04/21 03:54:02;;;;;;;27.30;22.00;;;7.70;98.00;;;;;;10498869;28;20197;-78
2021/04/21 03:59:05;;;;;;;24.30;21.80;;;7.70;98.10;;;;;;10477462;28;20216;-78
2021/04/21 04:04:10;;;;;;;24.50;21.70;;;7.60;98.20;;;;;;10494433;28;20204;-79
2021/04/21 04:09:14;;;;;;;24.53;22.03;;;7.50;98.30;;;;;;10496905;28;20244;-79
2021/04/21 04:14:19;;;;;;;24.93;22.17;;;7.50;98.50;;;;;;10497045;28;20185;-79
2021/04/21 04:19:22;;;;;;;25.87;23.23;;;7.40;99.10;;;;;;10496595;28;20220;-79
2021/04/21 04:24:26;;;;;;;28.77;24.93;;;7.40;98.80;;;;;;10496388;28;20573;-79
2021/04/21 04:29:29;;;;;;;27.33;23.20;;;7.40;98.70;;;;;;10496166;28;20595;-80
2021/04/21 04:34:33;;;;;;;26.73;22.37;;;7.40;98.90;;;;;;10480320;28;20200;-79
2021/04/21 04:39:36;;;;;;;27.43;23.60;;;7.40;98.80;;;;;;10496324;28;20287;-79
2021/04/21 04:44:41;;;;;;;25.10;22.20;;;7.40;99.20;;;;;;10494917;28;20212;-79
2021/04/21 04:49:48;;;;;;;24.97;21.90;;;7.40;99.10;;;;;;10495820;28;20209;-79
2021/04/21 04:54:52;;;;;;;24.17;21.57;;;7.40;99.30;;;;;;10496380;28;20657;-76
2021/04/21 04:59:58;;;;;;;27.60;23.27;;;7.50;99.00;;;;;;10493555;28;20240;-74
2021/04/21 05:05:04;;;;;;;25.13;21.67;;;7.50;99.10;;;;;;10494325;28;20193;-76
2021/04/21 05:10:10;;;;;;;26.97;23.50;;;7.50;99.20;;;;;;10491777;28;20626;-76
2021/04/21 05:15:41;;;;;;;25.63;23.00;;;7.60;99.20;;;;;;10493375;28;20188;-75
2021/04/21 05:21:27;;;;;;;24.83;22.17;;;7.60;99.10;;;;;;10471582;28;20644;-76
2021/04/21 05:27:02;;;;;;;26.53;23.13;;;7.70;99.40;;;;;;10492328;28;20774;-75
2021/04/21 05:32:43;;;;;;;25.10;21.70;;;7.70;99.30;;;;;;10493160;28;20212;-75
2021/04/21 05:38:34;;;;;;;24.80;22.20;;;7.80;99.30;;;;;;10493869;28;20212;-75
2021/04/21 05:44:24;;;;;;;24.70;22.13;;;7.90;99.40;;;;;;10441152;28;20287;-75
2021/04/21 05:49:49;;;;;;;31.60;22.53;;;8.00;99.50;;;;;;10493352;28;20253;-78
2021/04/21 05:55:38;;;;;;;24.70;22.10;;;8.10;99.50;;;;;;10493931;28;20203;-76
2021/04/21 06:01:08;;;;;;;27.03;23.63;;;8.20;99.40;;;;;;10493691;28;20199;-75
2021/04/21 06:06:11;;;;;;;29.10;23.03;;;8.30;99.60;;;;;;10493077;28;20216;-75
2021/04/21 06:11:17;;;;;;;25.83;23.17;;;8.40;99.30;;;;;;10493627;28;20219;-75
2021/04/21 06:16:20;;;;;;;31.13;23.67;;;8.50;99.30;;;;;;10495938;28;20292;-76
2021/04/21 06:21:25;;;;;;;28.93;22.50;;;8.60;99.40;;;;;;10499761;28;20193;-75
2021/04/21 06:26:28;;;;;;;23.60;21.10;;;8.80;99.30;;;;;;10500630;28;20596;-76
2021/04/21 06:31:42;;;;;;;26.07;23.20;;;8.90;99.30;;;;;;10499021;28;20668;-78
2021/04/21 06:36:47;;;;;;;24.83;22.13;;;9.00;99.10;;;;;;10500367;28;20278;-78
2021/04/21 06:41:54;;;;;;;25.17;22.43;;;9.20;99.00;;;;;;10498472;28;20212;-78
2021/04/21 06:46:56;;;;;;;25.70;22.93;;;9.30;99.00;;;;;;10499689;28;20615;-78
2021/04/21 06:52:11;;;;;;;28.23;22.90;;;9.40;98.90;;;;;;10499810;28;20301;-78
2021/04/21 06:57:27;;;;;;;23.33;20.93;;;9.50;99.00;;;;;;10499601;28;20302;-78
2021/04/21 07:02:35;;;;;;;25.23;22.50;;;9.60;98.80;;;;;;10498130;28;20287;-77
2021/04/21 07:07:42;;;;;;;25.43;22.73;;;9.80;98.50;;;;;;10481083;28;20215;-77
2021/04/21 07:12:45;;;;;;;25.53;22.60;;;9.90;98.50;;;;;;10480678;28;20267;-78
2021/04/21 07:17:48;;;;;;;33.60;24.80;;;10.10;98.10;;;;;;10498761;28;20234;-77
2021/04/21 07:22:51;;;;;;;24.53;22.03;;;10.30;97.90;;;;;;10497811;28;20652;-77
2021/04/21 07:27:54;;;;;;;25.33;22.60;;;10.40;98.00;;;;;;10497923;28;20656;-76
2021/04/21 07:32:57;;;;;;;24.77;21.87;;;10.60;97.90;;;;;;10498399;28;20222;-77
2021/04/21 07:38:00;;;;;;;26.07;23.23;;;10.80;98.10;;;;;;10496705;28;20213;-78
2021/04/21 07:43:10;;;;;;;24.27;21.70;;;11.10;98.10;;;;;;10479717;28;20195;-76
2021/04/21 07:48:43;;;;;;;24.87;22.10;;;11.30;97.70;;;;;;10497568;28;20296;-76
2021/04/21 07:53:49;;;;;;;23.60;21.10;;;11.60;97.70;;;;;;10474380;28;20550;-77
2021/04/21 07:58:51;;;;;;;22.90;20.60;;;11.90;97.50;;;;;;10497281;28;20666;-77
2021/04/21 08:03:53;;;;;;;24.40;21.37;;;12.20;96.90;;;;;;10497348;28;20193;-78
2021/04/21 08:08:56;;;;;;;24.63;22.23;;;12.40;96.60;;;;;;10496276;28;20223;-76
2021/04/21 08:13:58;;;;;;;20.83;18.70;;;12.70;96.20;;;;;;10496245;28;20226;-77
2021/04/21 08:19:01;;;;;;;19.90;17.90;;;13.00;95.60;;;;;;10495919;28;20219;-76
2021/04/21 08:24:12;;;;;;;22.10;18.90;;;13.30;95.30;;;;;;10496166;28;20637;-76
2021/04/21 08:29:15;;;;;;;21.20;18.20;;;13.50;95.10;;;;;;10477929;28;20954;-77
2021/04/21 08:34:17;;;;;;;20.43;18.40;;;13.80;94.40;;;;;;10494176;28;20224;-77
2021/04/21 08:39:20;;;;;;;23.93;19.60;;;14.20;92.50;;;;;;10493950;28;20280;-76
2021/04/21 08:44:24;;;;;;;19.93;17.50;;;14.40;92.30;;;;;;10493919;28;20192;-77
2021/04/21 08:49:29;;;;;;;20.20;16.50;;;14.70;91.90;;;;;;10494885;28;20712;-76
2021/04/21 08:54:36;;;;;;;22.93;18.20;;;14.90;91.60;;;;;;10492522;28;20344;-76
2021/04/21 08:59:39;;;;;;;18.43;16.53;;;15.30;91.10;;;;;;10490183;28;20679;-76
2021/04/21 09:04:44;;;;;;;17.43;15.60;;;15.50;90.50;;;;;;10494344;28;20283;-77
2021/04/21 09:09:46;;;;;;;20.40;18.13;;;15.80;88.10;;;;;;10493487;28;20301;-77
2021/04/21 09:14:49;;;;;;;17.73;15.83;;;16.10;87.20;;;;;;10494713;28;20605;-77
2021/04/21 09:19:51;;;;;;;15.43;13.83;;;16.40;84.50;;;;;;10494707;28;20672;-77
2021/04/21 09:25:00;;;;;;;14.87;12.77;;;16.70;82.30;;;;;;10484489;28;20209;-77
2021/04/21 09:30:13;;;;;;;12.73;11.53;;;17.10;77.10;;;;;;10510287;22;20231;-82
2021/04/21 09:35:23;;;;;;;14.43;11.60;;;17.40;76.40;;;;;;10500441;28;20200;-81
2021/04/21 09:40:34;;;;;;;11.90;10.70;;;17.80;71.00;;;;;;10497342;28;20252;-84
2021/04/21 09:45:38;;;;;;;12.60;11.30;;;18.10;71.60;;;;;;10485429;28;20231;-81
2021/04/21 09:50:41;;;;;;;12.47;11.23;;;18.30;68.30;;;;;;10489163;28;20224;-83
2021/04/21 09:56:05;;;;;;;12.60;11.17;;;18.50;66.70;;;;;;10509076;28;20204;-84
2021/04/21 10:01:28;;;;;;;13.13;11.73;;;18.60;67.90;;;;;;10512404;28;20181;-84
2021/04/21 10:06:31;;;;;;;11.57;10.37;;;18.80;63.40;;;;;;10515112;28;20294;-83
2021/04/21 10:11:34;;;;;;;12.67;10.87;;;18.90;64.10;;;;;;10513531;28;20231;-83
2021/04/21 10:16:35;;;;;;;14.40;12.17;;;18.60;62.90;;;;;;10507868;28;20628;-83
2021/04/21 10:21:38;;;;;;;12.50;11.10;;;18.30;59.80;;;;;;10521620;28;20200;-82
2021/04/21 10:26:42;;;;;;;11.30;10.07;;;17.80;60.90;;;;;;10525170;28;20243;-82
2021/04/21 10:31:45;;;;;;;9.97;9.07;;;17.40;64.50;;;;;;10505009;28;20228;-83
2021/04/21 10:36:49;;;;;;;9.57;8.57;;;17.10;58.50;;;;;;10504648;28;20296;-84
2021/04/21 10:42:03;;;;;;;8.27;7.40;;;16.90;57.50;;;;;;10505664;28;20833;-84
2021/04/21 10:47:10;;;;;;;9.37;8.40;;;16.70;62.80;;;;;;10492938;28;20607;-84
2021/04/21 10:52:18;;;;;;;12.03;10.73;;;16.60;61.70;;;;;;10492371;28;20240;-83
2021/04/21 10:57:35;;;;;;;11.33;10.13;;;16.40;59.70;;;;;;10505308;28;20240;-82
2021/04/21 11:02:51;;;;;;;11.20;9.40;;;16.40;61.50;;;;;;10487356;28;20679;-83
2021/04/21 11:08:01;;;;;;;10.30;9.23;;;16.30;60.30;;;;;;10507162;28;20718;-83
2021/04/21 11:13:05;;;;;;;11.73;10.13;;;16.30;61.60;;;;;;10512411;28;20213;-84
2021/04/21 11:18:24;;;;;;;11.57;9.80;;;16.20;63.60;;;;;;10491507;28;20296;-83
2021/04/21 11:23:53;;;;;;;11.60;10.50;;;16.20;61.30;;;;;;10503421;28;20659;-83
2021/04/21 11:28:56;;;;;;;9.50;8.57;;;16.20;58.60;;;;;;10500430;28;20707;-82
2021/04/21 11:33:58;;;;;;;8.87;7.97;;;16.20;59.40;;;;;;10488640;28;20216;-85
2021/04/21 11:38:59;;;;;;;10.33;9.00;;;16.20;60.80;;;;;;10505156;28;20232;-84
2021/04/21 11:44:02;;;;;;;12.03;10.10;;;16.20;62.50;;;;;;10511802;28;20219;-85
2021/04/21 11:49:04;;;;;;;10.30;8.30;;;16.20;58.90;;;;;;10498507;28;20220;-84
2021/04/21 11:54:06;;;;;;;8.33;7.53;;;16.30;59.20;;;;;;10488960;28;20207;-85
2021/04/21 11:59:09;;;;;;;11.47;10.30;;;16.20;57.50;;;;;;10503189;28;20205;-82
2021/04/21 12:04:11;;;;;;;9.20;7.60;;;16.20;56.70;;;;;;10483319;28;20617;-83
2021/04/21 12:09:12;;;;;;;11.67;10.30;;;16.20;57.80;;;;;;10482008;28;20311;-82
2021/04/21 12:14:19;;;;;;;8.13;6.80;;;16.20;56.30;;;;;;10481720;28;20684;-83
2021/04/21 12:19:21;;;;;;;9.37;8.40;;;16.20;57.10;;;;;;10514736;28;20204;-83
2021/04/21 12:24:22;;;;;;;9.40;7.67;;;16.30;55.50;;;;;;10521040;28;20189;-82
2021/04/21 12:29:25;;;;;;;7.87;7.07;;;16.40;56.30;;;;;;10519085;28;20223;-83
2021/04/21 12:34:27;;;;;;;8.43;7.63;;;16.40;57.90;;;;;;10524204;28;20196;-84
2021/04/21 12:39:28;;;;;;;9.47;7.50;;;16.50;56.20;;;;;;10504916;28;20215;-83
2021/04/21 12:44:34;;;;;;;7.80;7.10;;;16.60;58.40;;;;;;10527569;28;20196;-83
2021/04/21 12:49:37;;;;;;;11.53;8.77;;;16.60;56.60;;;;;;10510095;28;20239;-83
2021/04/21 12:54:42;;;;;;;9.50;8.20;;;16.70;55.30;;;;;;10531271;28;20188;-84
2021/04/21 12:59:46;;;;;;;10.70;9.70;;;16.80;56.60;;;;;;10511072;28;20303;-83
2021/04/21 13:04:48;;;;;;;10.07;8.33;;;16.80;55.90;;;;;;10512958;28;20185;-80
2021/04/21 13:09:50;;;;;;;11.50;9.77;;;16.80;57.70;;;;;;10511231;28;20204;-82
2021/04/21 13:14:53;;;;;;;9.70;8.73;;;16.90;57.20;;;;;;10497931;28;20568;-82
2021/04/21 13:19:56;;;;;;;10.10;9.10;;;16.90;58.30;;;;;;10496486;28;20223;-82
2021/04/21 13:25:01;;;;;;;10.40;7.63;;;17.00;56.80;;;;;;10495792;28;20238;-81
2021/04/21 13:30:16;;;;;;;8.53;7.63;;;17.10;56.90;;;;;;10496662;28;20212;-81
2021/04/21 13:35:20;;;;;;;7.87;7.07;;;17.10;53.80;;;;;;10497355;28;20668;-82
2021/04/21 13:40:23;;;;;;;7.10;6.50;;;17.10;52.90;;;;;;10496217;28;20724;-82
2021/04/21 13:45:25;;;;;;;8.07;7.27;;;16.90;57.00;;;;;;10467453;28;20764;-82
2021/04/21 13:50:27;;;;;;;7.63;6.93;;;16.70;55.50;;;;;;10461399;28;20220;-81
2021/04/21 13:55:29;;;;;;;6.57;5.97;;;16.70;55.90;;;;;;10461807;28;20201;-82
2021/04/21 14:00:32;;;;;;;6.33;5.73;;;16.90;55.30;;;;;;10456734;28;20213;-81
2021/04/21 14:05:34;;;;;;;6.40;5.87;;;17.20;54.30;;;;;;10456447;28;20193;-82
2021/04/21 14:10:37;;;;;;;7.30;6.07;;;17.40;56.90;;;;;;10456502;28;20225;-83
2021/04/21 14:15:39;;;;;;;7.30;6.20;;;17.50;57.90;;;;;;10459006;28;20190;-81
2021/04/21 14:20:46;;;;;;;6.77;6.23;;;17.60;56.40;;;;;;10477349;28;20259;-84
2021/04/21 14:25:47;;;;;;;7.37;6.60;;;17.50;57.30;;;;;;10458105;28;20193;-80
2021/04/21 14:30:50;;;;;;;7.20;6.50;;;17.50;55.90;;;;;;10458800;28;20304;-84
2021/04/21 14:35:53;;;;;;;7.50;6.80;;;17.50;56.80;;;;;;10465415;28;20247;-82
2021/04/21 14:40:54;;;;;;;7.50;6.40;;;17.30;57.10;;;;;;10466443;28;20284;-83
2021/04/21 14:45:57;;;;;;;7.03;6.33;;;17.20;57.00;;;;;;10448981;28;20228;-81
2021/04/21 14:50:59;;;;;;;7.17;6.53;;;17.10;55.80;;;;;;10479616;28;20587;-83
2021/04/21 14:56:01;;;;;;;6.60;5.80;;;17.20;55.10;;;;;;10505809;28;20260;-81
2021/04/21 15:01:08;;;;;;;6.07;5.47;;;17.20;56.70;;;;;;10518386;28;20201;-82
2021/04/21 15:06:10;;;;;;;6.30;5.70;;;17.30;55.10;;;;;;10530555;28;20212;-81
2021/04/21 15:11:17;;;;;;;7.33;6.63;;;17.40;55.20;;;;;;10517689;28;20283;-80
2021/04/21 15:16:22;;;;;;;6.00;5.50;;;17.50;52.50;;;;;;10503800;28;20221;-82
2021/04/21 15:21:28;;;;;;;7.47;5.80;;;17.70;54.40;;;;;;10509002;28;20200;-82
2021/04/21 15:26:31;;;;;;;7.03;5.90;;;17.70;54.80;;;;;;10515811;22;20228;-77
2021/04/21 15:31:39;;;;;;;7.33;5.87;;;17.70;54.60;;;;;;10544768;28;20349;-77
2021/04/21 15:36:42;;;;;;;5.73;5.10;;;17.60;54.70;;;;;;10556540;28;20242;-76
2021/04/21 15:41:45;;;;;;;6.60;6.03;;;17.50;55.20;;;;;;10534260;28;20243;-77
2021/04/21 15:46:48;;;;;;;6.00;5.50;;;17.40;58.60;;;;;;10513979;28;20211;-79
2021/04/21 15:51:57;;;;;;;5.97;5.47;;;17.10;58.70;;;;;;10551374;28;20315;-79
2021/04/21 15:57:00;;;;;;;6.97;6.37;;;17.00;59.60;;;;;;10543725;28;20227;-79
2021/04/21 16:02:03;;;;;;;6.60;6.00;;;16.80;59.80;;;;;;10559480;28;20192;-79
2021/04/21 16:07:05;;;;;;;7.20;5.73;;;16.80;56.60;;;;;;10561181;28;20216;-80
2021/04/21 16:12:07;;;;;;;8.50;6.10;;;16.70;58.20;;;;;;10568945;28;20256;-80
2021/04/21 16:17:10;;;;;;;5.90;5.40;;;16.70;58.80;;;;;;10570143;28;20230;-80
2021/04/21 16:22:11;;;;;;;6.90;6.00;;;16.60;58.10;;;;;;10525852;28;20226;-79
2021/04/21 16:27:13;;;;;;;5.90;5.40;;;16.40;59.80;;;;;;10567473;28;20234;-80
2021/04/21 16:32:15;;;;;;;5.93;5.30;;;16.30;58.30;;;;;;10589167;28;20211;-80
2021/04/21 16:37:17;;;;;;;6.00;5.40;;;16.30;56.90;;;;;;10566389;28;20615;-80
2021/04/21 16:42:19;;;;;;;4.93;4.53;;;16.30;59.70;;;;;;10541073;28;20195;-80
2021/04/21 16:47:21;;;;;;;5.90;4.77;;;16.40;60.60;;;;;;10568254;28;20299;-80
2021/04/21 16:52:23;;;;;;;5.30;4.70;;;16.50;59.70;;;;;;10540051;28;20216;-79
2021/04/21 16:57:25;;;;;;;5.17;4.77;;;16.50;58.50;;;;;;10533274;28;20226;-80
2021/04/21 17:02:29;;;;;;;4.73;4.33;;;16.40;57.00;;;;;;10539728;28;20286;-80
2021/04/21 17:07:30;;;;;;;5.10;4.70;;;16.40;61.40;;;;;;10538969;28;20219;-79
2021/04/21 17:12:33;;;;;;;5.37;4.87;;;16.40;61.90;;;;;;10547082;28;20219;-79
2021/04/21 17:17:37;;;;;;;4.77;4.37;;;16.30;62.00;;;;;;10526974;28;20220;-79
2021/04/21 17:22:39;;;;;;;4.90;4.50;;;16.10;61.90;;;;;;10502289;28;20586;-80
2021/04/21 17:27:44;;;;;;;6.03;5.43;;;16.00;64.50;;;;;;10539647;28;20228;-80
2021/04/21 17:32:47;;;;;;;6.27;5.67;;;15.90;61.30;;;;;;10519633;28;21000;-81
2021/04/21 17:37:50;;;;;;;7.53;5.60;;;15.90;58.90;;;;;;10549536;28;20668;-79
2021/04/21 17:43:10;;;;;;;5.97;5.37;;;15.90;59.90;;;;;;10520928;28;20283;-79
2021/04/21 17:48:13;;;;;;;7.40;6.70;;;15.90;60.00;;;;;;10499005;28;20220;-79
2021/04/21 17:53:15;;;;;;;7.17;6.30;;;15.90;60.40;;;;;;10493372;28;20690;-79
2021/04/21 17:58:18;;;;;;;6.30;5.70;;;15.80;59.00;;;;;;10499231;28;20239;-80
2021/04/21 18:03:21;;;;;;;9.43;7.00;;;15.80;61.00;;;;;;10514570;28;20227;-80
2021/04/21 18:08:23;;;;;;;6.97;6.27;;;15.70;61.50;;;;;;10495911;28;20261;-80
2021/04/21 18:13:25;;;;;;;9.80;6.40;;;15.60;61.70;;;;;;10538397;28;20227;-80
2021/04/21 18:18:28;;;;;;;7.70;6.40;;;15.50;66.30;;;;;;10540424;28;20223;-79
2021/04/21 18:23:29;;;;;;;7.60;6.90;;;15.40;65.30;;;;;;10537693;28;20301;-79
2021/04/21 18:28:31;;;;;;;7.57;6.37;;;15.30;66.20;;;;;;10519193;28;20273;-79
2021/04/21 18:33:34;;;;;;;6.37;5.77;;;15.20;68.30;;;;;;10537391;28;20243;-79
2021/04/21 18:38:36;;;;;;;6.70;5.00;;;15.20;68.10;;;;;;10535931;28;20243;-79
2021/04/21 18:43:37;;;;;;;9.23;5.97;;;15.20;67.60;;;;;;10540368;28;20325;-79
2021/04/21 18:48:40;;;;;;;8.60;7.40;;;15.20;67.50;;;;;;10512211;28;20269;-79
2021/04/21 18:53:42;;;;;;;7.27;6.23;;;15.10;66.80;;;;;;10537546;28;20654;-80
2021/04/21 18:58:45;;;;;;;12.50;9.80;;;15.10;68.00;;;;;;10518618;28;20277;-79
2021/04/21 19:03:48;;;;;;;19.00;14.27;;;15.00;67.90;;;;;;10535666;28;20196;-79
2021/04/21 19:08:50;;;;;;;12.10;10.17;;;14.90;68.50;;;;;;10512095;28;20212;-78
2021/04/21 19:13:53;;;;;;;14.73;11.80;;;14.90;67.90;;;;;;10531393;28;20226;-78
2021/04/21 19:18:56;;;;;;;8.13;7.30;;;14.80;68.40;;;;;;10495010;28;20224;-78
2021/04/21 19:23:59;;;;;;;8.03;7.23;;;14.70;69.00;;;;;;10509602;28;20222;-78
2021/04/21 19:29:01;;;;;;;8.30;7.47;;;14.60;68.60;;;;;;10534381;28;20220;-78
2021/04/21 19:34:05;;;;;;;7.83;7.17;;;14.50;68.60;;;;;;10533878;28;20223;-78
2021/04/21 19:39:09;;;;;;;7.20;6.50;;;14.40;69.00;;;;;;10511424;28;20323;-78
2021/04/21 19:44:11;;;;;;;8.27;7.30;;;14.30;69.70;;;;;;10522877;28;20196;-78
2021/04/21 19:49:14;;;;;;;8.53;7.70;;;14.30;68.70;;;;;;10481228;28;20217;-78
2021/04/21 19:54:18;;;;;;;8.37;7.67;;;14.30;67.60;;;;;;10500804;28;20252;-78
2021/04/21 19:59:22;;;;;;;8.20;7.30;;;14.30;68.50;;;;;;10513956;28;20224;-78
2021/04/21 20:04:25;;;;;;;7.60;6.90;;;14.30;68.60;;;;;;10492558;28;20302;-81
2021/04/21 20:09:27;;;;;;;6.80;6.20;;;14.20;67.90;;;;;;10485573;28;20719;-81
2021/04/21 20:14:29;;;;;;;7.33;6.63;;;14.20;68.80;;;;;;10516700;28;20216;-80
2021/04/21 20:19:32;;;;;;;8.03;7.23;;;14.00;69.00;;;;;;10498265;28;20226;-80
2021/04/21 20:24:33;;;;;;;7.87;7.27;;;13.90;69.20;;;;;;10502968;28;20193;-80
2021/04/21 20:29:35;;;;;;;12.00;8.90;;;13.80;69.90;;;;;;10501231;28;20224;-79
2021/04/21 20:34:41;;;;;;;9.40;8.40;;;13.80;70.50;;;;;;10500320;28;20223;-78
2021/04/21 20:39:43;;;;;;;10.30;9.37;;;13.70;71.00;;;;;;10504155;28;20789;-78
2021/04/21 20:44:46;;;;;;;8.87;8.00;;;13.60;71.40;;;;;;10488235;28;20192;-78
2021/04/21 20:49:49;;;;;;;11.33;7.50;;;13.40;72.10;;;;;;10512987;28;20220;-78
2021/04/21 20:54:51;;;;;;;8.77;8.00;;;13.40;71.80;;;;;;10514049;28;20245;-78
2021/04/21 20:59:53;;;;;;;8.10;7.40;;;13.30;72.20;;;;;;10505587;28;20239;-78
2021/04/21 21:04:55;;;;;;;10.43;8.00;;;13.20;72.30;;;;;;10509399;28;20207;-78
2021/04/21 21:09:57;;;;;;;8.40;7.60;;;13.00;72.90;;;;;;10521635;28;21006;-78
2021/04/21 21:14:58;;;;;;;8.90;8.10;;;12.90;73.50;;;;;;10526368;28;20726;-80
2021/04/21 21:20:02;;;;;;;8.03;7.33;;;12.90;74.00;;;;;;10516221;28;20222;-78
2021/04/21 21:25:06;;;;;;;8.13;7.37;;;12.70;74.10;;;;;;10518517;28;20246;-78
2021/04/21 21:30:09;;;;;;;9.13;8.07;;;12.70;74.60;;;;;;10502465;28;20228;-78
2021/04/21 21:35:13;;;;;;;8.63;7.73;;;12.60;74.90;;;;;;10505557;28;20238;-78
2021/04/21 21:40:17;;;;;;;8.73;8.03;;;12.50;75.20;;;;;;10513920;28;20661;-78
2021/04/21 21:45:19;;;;;;;8.67;7.67;;;12.40;75.40;;;;;;10511923;28;20753;-78
2021/04/21 21:50:22;;;;;;;12.23;8.17;;;12.30;75.70;;;;;;10519585;28;20216;-78
2021/04/21 21:55:23;;;;;;;8.80;8.00;;;12.30;76.20;;;;;;10535719;28;20226;-78
2021/04/21 22:00:26;;;;;;;8.50;7.70;;;12.20;76.40;;;;;;10527635;28;20212;-78
2021/04/21 22:05:29;;;;;;;9.43;8.63;;;12.20;76.70;;;;;;10541884;28;20564;-78
2021/04/21 22:10:31;;;;;;;9.37;8.50;;;12.20;77.10;;;;;;10533368;28;20218;-78
2021/04/21 22:15:39;;;;;;;9.93;8.93;;;12.20;77.00;;;;;;10501022;28;20204;-78
2021/04/21 22:20:42;;;;;;;10.27;9.30;;;12.10;77.10;;;;;;10526479;28;20219;-78
2021/04/21 22:25:43;;;;;;;8.63;7.93;;;12.10;77.60;;;;;;10541387;28;20199;-80
2021/04/21 22:30:47;;;;;;;9.10;8.30;;;12.00;78.00;;;;;;10544435;28;20268;-78
2021/04/21 22:35:50;;;;;;;9.40;8.40;;;11.90;78.70;;;;;;10535674;28;20199;-80
2021/04/21 22:40:51;;;;;;;10.43;9.13;;;11.90;78.70;;;;;;10543181;28;20207;-80
2021/04/21 22:45:53;;;;;;;9.43;8.50;;;11.80;79.10;;;;;;10555105;28;20199;-80
2021/04/21 22:50:58;;;;;;;11.00;10.00;;;11.70;79.00;;;;;;10559129;28;20255;-80
2021/04/21 22:56:03;;;;;;;10.10;9.07;;;11.60;79.20;;;;;;10550521;28;20204;-80
2021/04/21 23:01:14;;;;;;;10.20;9.20;;;11.50;79.50;;;;;;10547824;28;20188;-80
2021/04/21 23:06:17;;;;;;;9.70;8.80;;;11.40;79.80;;;;;;10549059;28;20278;-80
2021/04/21 23:11:18;;;;;;;10.90;9.80;;;11.40;80.00;;;;;;10538489;28;20215;-80
2021/04/21 23:16:25;;;;;;;9.50;8.60;;;11.30;80.20;;;;;;10546431;28;20192;-80
2021/04/21 23:21:39;;;;;;;10.53;9.63;;;11.30;80.80;;;;;;10549334;28;20184;-80
2021/04/21 23:27:01;;;;;;;10.53;9.47;;;11.30;80.70;;;;;;10551124;28;20393;-80
2021/04/21 23:32:04;;;;;;;11.17;9.67;;;11.30;81.10;;;;;;10549805;28;20219;-80
2021/04/21 23:37:06;;;;;;;11.27;9.97;;;11.20;81.20;;;;;;10549741;28;20285;-80
2021/04/21 23:42:08;;;;;;;10.77;9.77;;;11.20;81.50;;;;;;10546593;28;20662;-78
2021/04/21 23:47:09;;;;;;;8.60;7.07;;;11.10;82.00;;;;;;10524984;28;20228;-78
2021/04/21 23:52:14;;;;;;;9.77;8.93;;;11.10;82.40;;;;;;10543676;28;20227;-78
2021/04/21 23:57:17;;;;;;;10.43;9.30;;;11.00;82.40;;;;;;10543438;28;20215;-78
